sensor_id;sensor_type;location;lat;lon;timestamp;P1;durP1;ratioP1;P2;durP2;ratioP2
18455;SDS011;9357;49.900;8.208;2023-12-28T00:01:15;5.05;;;3.78;;
18455;SDS011;9357;49.900;8.208;2023-12-28T00:02:48;4.47;;;3.63;;
18455;SDS011;9357;49.900;8.208;2023-12-28T00:04:21;6.35;;;3.80;;
18455;SDS011;9357;49.900;8.208;2023-12-28T00:05:53;5.03;;;3.38;;
18455;SDS011;9357;49.900;8.208;2023-12-28T00:07:26;5.72;;;3.90;;
18455;SDS011;9357;49.900;8.208;2023-12-28T00:08:57;4.88;;;3.63;;
18455;SDS011;9357;49.900;8.208;2023-12-28T00:10:41;5.80;;;3.67;;
18455;SDS011;9357;49.900;8.208;2023-12-28T00:12:13;6.38;;;3.65;;
18455;SDS011;9357;49.900;8.208;2023-12-28T00:13:47;5.43;;;3.90;;
18455;SDS011;9357;49.900;8.208;2023-12-28T00:15:19;5.70;;;3.63;;
18455;SDS011;9357;49.900;8.208;2023-12-28T00:16:52;4.68;;;3.42;;
18455;SDS011;9357;49.900;8.208;2023-12-28T00:18:24;5.38;;;3.92;;
18455;SDS011;9357;49.900;8.208;2023-12-28T00:19:57;5.93;;;4.05;;
18455;SDS011;9357;49.900;8.208;2023-12-28T00:21:29;4.65;;;3.75;;
18455;SDS011;9357;49.900;8.208;2023-12-28T00:23:02;6.78;;;3.83;;
18455;SDS011;9357;49.900;8.208;2023-12-28T00:24:34;6.78;;;3.75;;
18455;SDS011;9357;49.900;8.208;2023-12-28T00:26:06;4.70;;;3.35;;
18455;SDS011;9357;49.900;8.208;2023-12-28T00:27:38;4.63;;;3.67;;
18455;SDS011;9357;49.900;8.208;2023-12-28T00:29:12;4.70;;;3.70;;
18455;SDS011;9357;49.900;8.208;2023-12-28T00:30:44;5.55;;;4.07;;
18455;SDS011;9357;49.900;8.208;2023-12-28T00:32:17;6.63;;;4.00;;
18455;SDS011;9357;49.900;8.208;2023-12-28T00:33:49;4.45;;;4.00;;
18455;SDS011;9357;49.900;8.208;2023-12-28T00:35:22;5.45;;;3.80;;
18455;SDS011;9357;49.900;8.208;2023-12-28T00:36:54;4.88;;;3.90;;
18455;SDS011;9357;49.900;8.208;2023-12-28T00:38:27;4.30;;;3.90;;
18455;SDS011;9357;49.900;8.208;2023-12-28T00:39:59;4.45;;;4.00;;
18455;SDS011;9357;49.900;8.208;2023-12-28T00:41:31;5.10;;;4.20;;
18455;SDS011;9357;49.900;8.208;2023-12-28T00:43:04;6.32;;;4.45;;
18455;SDS011;9357;49.900;8.208;2023-12-28T00:44:37;4.95;;;3.75;;
18455;SDS011;9357;49.900;8.208;2023-12-28T00:46:09;6.72;;;4.07;;
18455;SDS011;9357;49.900;8.208;2023-12-28T00:47:42;5.03;;;4.18;;
18455;SDS011;9357;49.900;8.208;2023-12-28T00:49:14;6.63;;;3.95;;
18455;SDS011;9357;49.900;8.208;2023-12-28T00:50:47;5.40;;;4.03;;
18455;SDS011;9357;49.900;8.208;2023-12-28T00:52:19;6.38;;;4.40;;
18455;SDS011;9357;49.900;8.208;2023-12-28T00:53:51;5.53;;;3.83;;
18455;SDS011;9357;49.900;8.208;2023-12-28T00:55:23;4.30;;;3.50;;
18455;SDS011;9357;49.900;8.208;2023-12-28T00:56:56;6.00;;;4.10;;
18455;SDS011;9357;49.900;8.208;2023-12-28T00:58:28;4.90;;;3.72;;
18455;SDS011;9357;49.900;8.208;2023-12-28T01:00:02;4.47;;;3.80;;
18455;SDS011;9357;49.900;8.208;2023-12-28T01:01:35;5.40;;;4.05;;
18455;SDS011;9357;49.900;8.208;2023-12-28T01:03:08;5.40;;;4.10;;
18455;SDS011;9357;49.900;8.208;2023-12-28T01:04:40;5.78;;;4.00;;
18455;SDS011;9357;49.900;8.208;2023-12-28T01:06:12;5.60;;;3.67;;
18455;SDS011;9357;49.900;8.208;2023-12-28T01:07:44;5.28;;;3.88;;
18455;SDS011;9357;49.900;8.208;2023-12-28T01:09:18;4.30;;;3.58;;
18455;SDS011;9357;49.900;8.208;2023-12-28T01:10:50;6.25;;;4.13;;
18455;SDS011;9357;49.900;8.208;2023-12-28T01:12:23;4.75;;;3.95;;
18455;SDS011;9357;49.900;8.208;2023-12-28T01:13:54;5.10;;;4.20;;
18455;SDS011;9357;49.900;8.208;2023-12-28T01:15:30;6.03;;;4.22;;
18455;SDS011;9357;49.900;8.208;2023-12-28T01:17:02;4.75;;;4.15;;
18455;SDS011;9357;49.900;8.208;2023-12-28T01:18:34;4.13;;;3.70;;
18455;SDS011;9357;49.900;8.208;2023-12-28T01:20:08;5.28;;;4.35;;
18455;SDS011;9357;49.900;8.208;2023-12-28T01:21:40;4.90;;;3.80;;
18455;SDS011;9357;49.900;8.208;2023-12-28T01:23:13;7.30;;;4.43;;
18455;SDS011;9357;49.900;8.208;2023-12-28T01:24:45;5.80;;;3.85;;
18455;SDS011;9357;49.900;8.208;2023-12-28T01:26:20;4.57;;;3.60;;
18455;SDS011;9357;49.900;8.208;2023-12-28T01:27:52;5.60;;;4.00;;
18455;SDS011;9357;49.900;8.208;2023-12-28T01:29:25;5.20;;;3.90;;
18455;SDS011;9357;49.900;8.208;2023-12-28T01:30:58;6.10;;;3.80;;
18455;SDS011;9357;49.900;8.208;2023-12-28T01:32:31;7.00;;;4.32;;
18455;SDS011;9357;49.900;8.208;2023-12-28T01:34:03;5.00;;;3.75;;
18455;SDS011;9357;49.900;8.208;2023-12-28T01:35:35;5.63;;;3.80;;
18455;SDS011;9357;49.900;8.208;2023-12-28T01:37:08;4.80;;;3.90;;
18455;SDS011;9357;49.900;8.208;2023-12-28T01:38:40;5.40;;;3.97;;
18455;SDS011;9357;49.900;8.208;2023-12-28T01:40:13;4.90;;;3.92;;
18455;SDS011;9357;49.900;8.208;2023-12-28T01:41:47;6.88;;;3.97;;
18455;SDS011;9357;49.900;8.208;2023-12-28T01:43:19;5.90;;;4.15;;
18455;SDS011;9357;49.900;8.208;2023-12-28T01:44:51;5.32;;;3.88;;
18455;SDS011;9357;49.900;8.208;2023-12-28T01:46:24;5.10;;;3.95;;
18455;SDS011;9357;49.900;8.208;2023-12-28T01:47:57;7.60;;;4.43;;
18455;SDS011;9357;49.900;8.208;2023-12-28T01:49:32;4.93;;;4.03;;
18455;SDS011;9357;49.900;8.208;2023-12-28T01:51:04;4.50;;;4.10;;
18455;SDS011;9357;49.900;8.208;2023-12-28T01:52:37;6.30;;;4.20;;
18455;SDS011;9357;49.900;8.208;2023-12-28T01:54:10;6.35;;;4.47;;
18455;SDS011;9357;49.900;8.208;2023-12-28T01:55:42;6.40;;;4.15;;
18455;SDS011;9357;49.900;8.208;2023-12-28T01:57:14;5.60;;;4.38;;
18455;SDS011;9357;49.900;8.208;2023-12-28T01:58:48;5.50;;;4.10;;
18455;SDS011;9357;49.900;8.208;2023-12-28T02:00:21;5.57;;;4.10;;
18455;SDS011;9357;49.900;8.208;2023-12-28T02:01:55;6.18;;;4.35;;
18455;SDS011;9357;49.900;8.208;2023-12-28T02:03:28;7.25;;;3.88;;
18455;SDS011;9357;49.900;8.208;2023-12-28T02:05:01;4.38;;;3.80;;
18455;SDS011;9357;49.900;8.208;2023-12-28T02:06:33;4.53;;;3.85;;
18455;SDS011;9357;49.900;8.208;2023-12-28T02:08:06;5.57;;;3.90;;
18455;SDS011;9357;49.900;8.208;2023-12-28T02:09:38;7.07;;;3.70;;
18455;SDS011;9357;49.900;8.208;2023-12-28T02:11:11;5.07;;;3.90;;
18455;SDS011;9357;49.900;8.208;2023-12-28T02:12:43;5.57;;;3.85;;
18455;SDS011;9357;49.900;8.208;2023-12-28T02:14:16;5.18;;;3.95;;
18455;SDS011;9357;49.900;8.208;2023-12-28T02:15:49;5.20;;;4.10;;
18455;SDS011;9357;49.900;8.208;2023-12-28T02:17:33;5.68;;;4.03;;
18455;SDS011;9357;49.900;8.208;2023-12-28T02:21:02;5.03;;;3.95;;
18455;SDS011;9357;49.900;8.208;2023-12-28T02:22:36;6.55;;;4.03;;
18455;SDS011;9357;49.900;8.208;2023-12-28T02:24:08;4.60;;;3.70;;
18455;SDS011;9357;49.900;8.208;2023-12-28T02:25:42;5.97;;;3.97;;
18455;SDS011;9357;49.900;8.208;2023-12-28T02:27:14;4.45;;;3.53;;
18455;SDS011;9357;49.900;8.208;2023-12-28T02:28:47;4.80;;;3.83;;
18455;SDS011;9357;49.900;8.208;2023-12-28T02:30:19;4.97;;;4.00;;
18455;SDS011;9357;49.900;8.208;2023-12-28T02:31:58;6.18;;;3.92;;
18455;SDS011;9357;49.900;8.208;2023-12-28T02:33:35;4.68;;;3.60;;
18455;SDS011;9357;49.900;8.208;2023-12-28T02:35:17;4.38;;;3.70;;
18455;SDS011;9357;49.900;8.208;2023-12-28T02:36:53;7.25;;;4.30;;
18455;SDS011;9357;49.900;8.208;2023-12-28T02:38:29;5.07;;;3.80;;
18455;SDS011;9357;49.900;8.208;2023-12-28T02:40:03;5.10;;;3.80;;
18455;SDS011;9357;49.900;8.208;2023-12-28T02:41:39;4.78;;;3.90;;
18455;SDS011;9357;49.900;8.208;2023-12-28T02:43:12;5.13;;;3.45;;
18455;SDS011;9357;49.900;8.208;2023-12-28T02:44:44;5.00;;;3.83;;
18455;SDS011;9357;49.900;8.208;2023-12-28T02:46:17;4.47;;;3.45;;
18455;SDS011;9357;49.900;8.208;2023-12-28T02:47:49;5.15;;;3.58;;
18455;SDS011;9357;49.900;8.208;2023-12-28T02:49:21;6.05;;;4.00;;
18455;SDS011;9357;49.900;8.208;2023-12-28T02:50:54;5.07;;;3.95;;
18455;SDS011;9357;49.900;8.208;2023-12-28T02:52:26;7.20;;;3.90;;
18455;SDS011;9357;49.900;8.208;2023-12-28T02:53:59;4.82;;;4.00;;
18455;SDS011;9357;49.900;8.208;2023-12-28T02:55:30;4.50;;;3.60;;
18455;SDS011;9357;49.900;8.208;2023-12-28T02:57:05;4.53;;;3.70;;
18455;SDS011;9357;49.900;8.208;2023-12-28T02:58:36;4.88;;;4.03;;
18455;SDS011;9357;49.900;8.208;2023-12-28T03:00:09;4.18;;;3.78;;
18455;SDS011;9357;49.900;8.208;2023-12-28T03:01:42;6.13;;;3.92;;
18455;SDS011;9357;49.900;8.208;2023-12-28T03:03:15;5.80;;;3.80;;
18455;SDS011;9357;49.900;8.208;2023-12-28T03:04:46;4.15;;;3.65;;
18455;SDS011;9357;49.900;8.208;2023-12-28T03:06:19;5.85;;;3.67;;
18455;SDS011;9357;49.900;8.208;2023-12-28T03:07:51;6.20;;;3.80;;
18455;SDS011;9357;49.900;8.208;2023-12-28T03:09:26;4.03;;;3.60;;
18455;SDS011;9357;49.900;8.208;2023-12-28T03:10:58;3.65;;;3.28;;
18455;SDS011;9357;49.900;8.208;2023-12-28T03:12:32;4.35;;;3.47;;
18455;SDS011;9357;49.900;8.208;2023-12-28T03:14:04;5.63;;;4.15;;
18455;SDS011;9357;49.900;8.208;2023-12-28T03:15:37;6.68;;;4.18;;
18455;SDS011;9357;49.900;8.208;2023-12-28T03:17:08;5.13;;;3.72;;
18455;SDS011;9357;49.900;8.208;2023-12-28T03:18:42;4.32;;;3.88;;
18455;SDS011;9357;49.900;8.208;2023-12-28T03:20:14;6.25;;;4.40;;
18455;SDS011;9357;49.900;8.208;2023-12-28T03:21:47;4.00;;;3.53;;
18455;SDS011;9357;49.900;8.208;2023-12-28T03:23:19;6.22;;;4.13;;
18455;SDS011;9357;49.900;8.208;2023-12-28T03:24:52;5.75;;;3.97;;
18455;SDS011;9357;49.900;8.208;2023-12-28T03:26:24;5.63;;;3.95;;
18455;SDS011;9357;49.900;8.208;2023-12-28T03:27:58;7.18;;;3.75;;
18455;SDS011;9357;49.900;8.208;2023-12-28T03:29:31;4.22;;;3.75;;
18455;SDS011;9357;49.900;8.208;2023-12-28T03:31:03;6.18;;;4.20;;
18455;SDS011;9357;49.900;8.208;2023-12-28T03:32:36;6.57;;;4.00;;
18455;SDS011;9357;49.900;8.208;2023-12-28T03:34:08;6.20;;;4.20;;
18455;SDS011;9357;49.900;8.208;2023-12-28T03:35:40;5.53;;;3.92;;
18455;SDS011;9357;49.900;8.208;2023-12-28T03:37:13;6.43;;;4.10;;
18455;SDS011;9357;49.900;8.208;2023-12-28T03:38:45;5.40;;;4.13;;
18455;SDS011;9357;49.900;8.208;2023-12-28T03:40:18;4.80;;;4.10;;
18455;SDS011;9357;49.900;8.208;2023-12-28T03:41:51;6.03;;;4.10;;
18455;SDS011;9357;49.900;8.208;2023-12-28T03:43:25;6.88;;;4.13;;
18455;SDS011;9357;49.900;8.208;2023-12-28T03:44:57;5.15;;;4.40;;
18455;SDS011;9357;49.900;8.208;2023-12-28T03:46:30;5.53;;;3.88;;
18455;SDS011;9357;49.900;8.208;2023-12-28T03:48:02;4.50;;;3.90;;
18455;SDS011;9357;49.900;8.208;2023-12-28T03:49:36;6.53;;;4.22;;
18455;SDS011;9357;49.900;8.208;2023-12-28T03:51:08;5.75;;;4.30;;
18455;SDS011;9357;49.900;8.208;2023-12-28T03:52:46;5.22;;;3.70;;
18455;SDS011;9357;49.900;8.208;2023-12-28T03:54:17;7.05;;;4.10;;
18455;SDS011;9357;49.900;8.208;2023-12-28T03:55:51;5.00;;;4.03;;
18455;SDS011;9357;49.900;8.208;2023-12-28T03:57:22;5.63;;;3.88;;
18455;SDS011;9357;49.900;8.208;2023-12-28T03:58:57;6.57;;;3.95;;
18455;SDS011;9357;49.900;8.208;2023-12-28T04:00:28;5.40;;;4.00;;
18455;SDS011;9357;49.900;8.208;2023-12-28T04:02:01;6.07;;;3.88;;
18455;SDS011;9357;49.900;8.208;2023-12-28T04:03:34;6.18;;;3.80;;
18455;SDS011;9357;49.900;8.208;2023-12-28T04:05:06;4.50;;;3.80;;
18455;SDS011;9357;49.900;8.208;2023-12-28T04:06:39;4.80;;;4.13;;
18455;SDS011;9357;49.900;8.208;2023-12-28T04:08:13;5.43;;;4.30;;
18455;SDS011;9357;49.900;8.208;2023-12-28T04:09:44;5.40;;;4.13;;
18455;SDS011;9357;49.900;8.208;2023-12-28T04:11:17;5.82;;;4.13;;
18455;SDS011;9357;49.900;8.208;2023-12-28T04:12:49;5.50;;;4.07;;
18455;SDS011;9357;49.900;8.208;2023-12-28T04:14:27;5.22;;;4.00;;
18455;SDS011;9357;49.900;8.208;2023-12-28T04:15:59;7.00;;;4.05;;
18455;SDS011;9357;49.900;8.208;2023-12-28T04:17:32;6.60;;;4.32;;
18455;SDS011;9357;49.900;8.208;2023-12-28T04:19:04;4.82;;;3.80;;
18455;SDS011;9357;49.900;8.208;2023-12-28T04:20:37;5.18;;;3.90;;
18455;SDS011;9357;49.900;8.208;2023-12-28T04:22:08;4.13;;;3.72;;
18455;SDS011;9357;49.900;8.208;2023-12-28T04:23:41;4.85;;;3.90;;
18455;SDS011;9357;49.900;8.208;2023-12-28T04:25:13;5.70;;;3.92;;
18455;SDS011;9357;49.900;8.208;2023-12-28T04:26:47;5.40;;;3.70;;
18455;SDS011;9357;49.900;8.208;2023-12-28T04:28:20;5.00;;;3.88;;
18455;SDS011;9357;49.900;8.208;2023-12-28T04:29:53;4.07;;;3.40;;
18455;SDS011;9357;49.900;8.208;2023-12-28T04:31:25;6.63;;;3.97;;
18455;SDS011;9357;49.900;8.208;2023-12-28T04:32:57;4.00;;;3.60;;
18455;SDS011;9357;49.900;8.208;2023-12-28T04:34:30;4.00;;;3.60;;
18455;SDS011;9357;49.900;8.208;2023-12-28T04:36:02;3.80;;;3.40;;
18455;SDS011;9357;49.900;8.208;2023-12-28T04:37:36;4.38;;;3.60;;
18455;SDS011;9357;49.900;8.208;2023-12-28T04:39:08;4.53;;;3.70;;
18455;SDS011;9357;49.900;8.208;2023-12-28T04:40:41;5.10;;;3.78;;
18455;SDS011;9357;49.900;8.208;2023-12-28T04:42:12;4.20;;;3.55;;
18455;SDS011;9357;49.900;8.208;2023-12-28T04:43:45;3.80;;;3.50;;
18455;SDS011;9357;49.900;8.208;2023-12-28T04:45:19;4.65;;;3.50;;
18455;SDS011;9357;49.900;8.208;2023-12-28T04:46:53;4.80;;;3.70;;
18455;SDS011;9357;49.900;8.208;2023-12-28T04:48:26;4.50;;;3.45;;
18455;SDS011;9357;49.900;8.208;2023-12-28T04:49:58;4.30;;;3.80;;
18455;SDS011;9357;49.900;8.208;2023-12-28T04:51:32;3.50;;;3.20;;
18455;SDS011;9357;49.900;8.208;2023-12-28T04:53:03;3.70;;;3.40;;
18455;SDS011;9357;49.900;8.208;2023-12-28T04:54:36;5.55;;;3.38;;
18455;SDS011;9357;49.900;8.208;2023-12-28T04:56:11;5.65;;;3.10;;
18455;SDS011;9357;49.900;8.208;2023-12-28T04:57:44;3.55;;;3.00;;
18455;SDS011;9357;49.900;8.208;2023-12-28T04:59:15;4.00;;;3.50;;
18455;SDS011;9357;49.900;8.208;2023-12-28T05:00:49;3.45;;;3.15;;
18455;SDS011;9357;49.900;8.208;2023-12-28T05:02:21;5.78;;;3.30;;
18455;SDS011;9357;49.900;8.208;2023-12-28T05:03:54;3.90;;;3.60;;
18455;SDS011;9357;49.900;8.208;2023-12-28T05:05:27;5.95;;;3.70;;
18455;SDS011;9357;49.900;8.208;2023-12-28T05:06:59;4.72;;;3.72;;
18455;SDS011;9357;49.900;8.208;2023-12-28T05:08:31;4.53;;;3.30;;
18455;SDS011;9357;49.900;8.208;2023-12-28T05:10:03;4.45;;;3.55;;
18455;SDS011;9357;49.900;8.208;2023-12-28T05:11:37;4.15;;;3.63;;
18455;SDS011;9357;49.900;8.208;2023-12-28T05:13:08;4.20;;;3.47;;
18455;SDS011;9357;49.900;8.208;2023-12-28T05:14:41;5.03;;;3.42;;
18455;SDS011;9357;49.900;8.208;2023-12-28T05:16:15;3.80;;;3.50;;
18455;SDS011;9357;49.900;8.208;2023-12-28T05:17:47;4.65;;;3.75;;
18455;SDS011;9357;49.900;8.208;2023-12-28T05:19:21;4.95;;;3.78;;
18455;SDS011;9357;49.900;8.208;2023-12-28T05:20:54;5.35;;;3.80;;
18455;SDS011;9357;49.900;8.208;2023-12-28T05:22:26;5.88;;;4.15;;
18455;SDS011;9357;49.900;8.208;2023-12-28T05:23:59;4.38;;;3.65;;
18455;SDS011;9357;49.900;8.208;2023-12-28T05:25:30;4.38;;;3.67;;
18455;SDS011;9357;49.900;8.208;2023-12-28T05:27:03;4.15;;;3.75;;
18455;SDS011;9357;49.900;8.208;2023-12-28T05:28:35;5.90;;;4.13;;
18455;SDS011;9357;49.900;8.208;2023-12-28T05:30:08;6.13;;;3.70;;
18455;SDS011;9357;49.900;8.208;2023-12-28T05:31:42;5.00;;;3.90;;
18455;SDS011;9357;49.900;8.208;2023-12-28T05:33:15;6.13;;;4.25;;
18455;SDS011;9357;49.900;8.208;2023-12-28T05:34:47;4.82;;;3.67;;
18455;SDS011;9357;49.900;8.208;2023-12-28T05:36:21;7.60;;;4.15;;
18455;SDS011;9357;49.900;8.208;2023-12-28T05:37:53;4.75;;;3.72;;
18455;SDS011;9357;49.900;8.208;2023-12-28T05:39:26;5.35;;;4.03;;
18455;SDS011;9357;49.900;8.208;2023-12-28T05:40:58;3.97;;;3.50;;
18455;SDS011;9357;49.900;8.208;2023-12-28T05:42:30;4.13;;;3.75;;
18455;SDS011;9357;49.900;8.208;2023-12-28T05:44:02;5.47;;;3.83;;
18455;SDS011;9357;49.900;8.208;2023-12-28T05:45:35;5.47;;;3.50;;
18455;SDS011;9357;49.900;8.208;2023-12-28T05:47:08;5.47;;;3.60;;
18455;SDS011;9357;49.900;8.208;2023-12-28T05:48:41;4.60;;;3.70;;
18455;SDS011;9357;49.900;8.208;2023-12-28T05:50:13;4.50;;;3.28;;
18455;SDS011;9357;49.900;8.208;2023-12-28T05:51:45;4.70;;;3.70;;
18455;SDS011;9357;49.900;8.208;2023-12-28T05:53:17;3.92;;;3.47;;
18455;SDS011;9357;49.900;8.208;2023-12-28T05:54:50;3.67;;;3.10;;
18455;SDS011;9357;49.900;8.208;2023-12-28T05:56:22;4.13;;;3.72;;
18455;SDS011;9357;49.900;8.208;2023-12-28T05:57:55;3.92;;;3.08;;
18455;SDS011;9357;49.900;8.208;2023-12-28T05:59:27;6.47;;;3.47;;
18455;SDS011;9357;49.900;8.208;2023-12-28T06:00:59;3.47;;;3.17;;
18455;SDS011;9357;49.900;8.208;2023-12-28T06:02:33;4.72;;;3.30;;
18455;SDS011;9357;49.900;8.208;2023-12-28T06:04:05;4.80;;;3.75;;
18455;SDS011;9357;49.900;8.208;2023-12-28T06:05:37;3.78;;;3.13;;
18455;SDS011;9357;49.900;8.208;2023-12-28T06:07:10;4.25;;;3.22;;
18455;SDS011;9357;49.900;8.208;2023-12-28T06:08:42;4.05;;;3.15;;
18455;SDS011;9357;49.900;8.208;2023-12-28T06:10:14;4.32;;;3.28;;
18455;SDS011;9357;49.900;8.208;2023-12-28T06:11:46;5.00;;;3.40;;
18455;SDS011;9357;49.900;8.208;2023-12-28T06:13:19;3.20;;;2.90;;
18455;SDS011;9357;49.900;8.208;2023-12-28T06:14:50;3.53;;;3.22;;
18455;SDS011;9357;49.900;8.208;2023-12-28T06:16:23;3.80;;;3.20;;
18455;SDS011;9357;49.900;8.208;2023-12-28T06:17:58;3.95;;;3.10;;
18455;SDS011;9357;49.900;8.208;2023-12-28T06:19:31;5.55;;;3.38;;
18455;SDS011;9357;49.900;8.208;2023-12-28T06:21:03;4.00;;;2.90;;
18455;SDS011;9357;49.900;8.208;2023-12-28T06:22:37;4.18;;;3.00;;
18455;SDS011;9357;49.900;8.208;2023-12-28T06:24:09;3.03;;;2.60;;
18455;SDS011;9357;49.900;8.208;2023-12-28T06:25:42;4.70;;;2.83;;
18455;SDS011;9357;49.900;8.208;2023-12-28T06:27:14;3.28;;;2.63;;
18455;SDS011;9357;49.900;8.208;2023-12-28T06:28:46;3.08;;;2.60;;
18455;SDS011;9357;49.900;8.208;2023-12-28T06:30:18;2.58;;;2.38;;
18455;SDS011;9357;49.900;8.208;2023-12-28T06:31:51;3.63;;;2.78;;
18455;SDS011;9357;49.900;8.208;2023-12-28T06:33:25;2.65;;;2.45;;
18455;SDS011;9357;49.900;8.208;2023-12-28T06:34:57;3.63;;;2.30;;
18455;SDS011;9357;49.900;8.208;2023-12-28T06:36:30;2.95;;;2.30;;
18455;SDS011;9357;49.900;8.208;2023-12-28T06:38:02;2.80;;;2.60;;
18455;SDS011;9357;49.900;8.208;2023-12-28T06:39:35;2.35;;;2.22;;
18455;SDS011;9357;49.900;8.208;2023-12-28T06:41:11;2.78;;;2.33;;
18455;SDS011;9357;49.900;8.208;2023-12-28T06:42:43;3.85;;;2.47;;
18455;SDS011;9357;49.900;8.208;2023-12-28T06:44:16;4.68;;;2.65;;
18455;SDS011;9357;49.900;8.208;2023-12-28T06:45:47;3.88;;;2.60;;
18455;SDS011;9357;49.900;8.208;2023-12-28T06:47:20;4.43;;;2.65;;
18455;SDS011;9357;49.900;8.208;2023-12-28T06:48:53;3.25;;;2.58;;
18455;SDS011;9357;49.900;8.208;2023-12-28T06:50:26;3.47;;;2.40;;
18455;SDS011;9357;49.900;8.208;2023-12-28T06:51:58;4.53;;;2.47;;
18455;SDS011;9357;49.900;8.208;2023-12-28T06:53:31;3.58;;;2.65;;
18455;SDS011;9357;49.900;8.208;2023-12-28T06:55:03;3.45;;;2.72;;
18455;SDS011;9357;49.900;8.208;2023-12-28T06:56:36;3.90;;;2.60;;
18455;SDS011;9357;49.900;8.208;2023-12-28T06:58:07;2.67;;;2.33;;
18455;SDS011;9357;49.900;8.208;2023-12-28T06:59:40;3.00;;;2.70;;
18455;SDS011;9357;49.900;8.208;2023-12-28T07:01:12;3.50;;;2.40;;
18455;SDS011;9357;49.900;8.208;2023-12-28T07:02:45;3.53;;;2.45;;
18455;SDS011;9357;49.900;8.208;2023-12-28T07:04:18;3.05;;;2.70;;
18455;SDS011;9357;49.900;8.208;2023-12-28T07:05:52;3.30;;;2.63;;
18455;SDS011;9357;49.900;8.208;2023-12-28T07:07:24;2.72;;;2.50;;
18455;SDS011;9357;49.900;8.208;2023-12-28T07:08:56;2.75;;;2.55;;
18455;SDS011;9357;49.900;8.208;2023-12-28T07:10:28;3.00;;;2.58;;
18455;SDS011;9357;49.900;8.208;2023-12-28T07:12:01;3.67;;;2.30;;
18455;SDS011;9357;49.900;8.208;2023-12-28T07:13:33;3.17;;;2.97;;
18455;SDS011;9357;49.900;8.208;2023-12-28T07:15:06;2.90;;;2.60;;
18455;SDS011;9357;49.900;8.208;2023-12-28T07:16:40;3.67;;;2.42;;
18455;SDS011;9357;49.900;8.208;2023-12-28T07:18:13;3.28;;;2.70;;
18455;SDS011;9357;49.900;8.208;2023-12-28T07:19:46;4.18;;;3.00;;
18455;SDS011;9357;49.900;8.208;2023-12-28T07:21:19;4.75;;;2.75;;
18455;SDS011;9357;49.900;8.208;2023-12-28T07:22:51;3.70;;;2.60;;
18455;SDS011;9357;49.900;8.208;2023-12-28T07:24:25;2.92;;;2.47;;
18455;SDS011;9357;49.900;8.208;2023-12-28T07:25:57;3.63;;;3.03;;
18455;SDS011;9357;49.900;8.208;2023-12-28T07:27:30;3.58;;;2.67;;
18455;SDS011;9357;49.900;8.208;2023-12-28T07:29:02;5.20;;;2.65;;
18455;SDS011;9357;49.900;8.208;2023-12-28T07:30:35;3.47;;;2.85;;
18455;SDS011;9357;49.900;8.208;2023-12-28T07:32:08;3.65;;;2.92;;
18455;SDS011;9357;49.900;8.208;2023-12-28T07:33:40;3.35;;;3.05;;
18455;SDS011;9357;49.900;8.208;2023-12-28T07:35:15;3.38;;;3.05;;
18455;SDS011;9357;49.900;8.208;2023-12-28T07:36:46;3.35;;;2.88;;
18455;SDS011;9357;49.900;8.208;2023-12-28T07:38:19;3.05;;;2.75;;
18455;SDS011;9357;49.900;8.208;2023-12-28T07:39:52;3.45;;;3.10;;
18455;SDS011;9357;49.900;8.208;2023-12-28T07:41:24;3.38;;;3.08;;
18455;SDS011;9357;49.900;8.208;2023-12-28T07:42:57;4.20;;;2.92;;
18455;SDS011;9357;49.900;8.208;2023-12-28T07:44:29;4.83;;;3.10;;
18455;SDS011;9357;49.900;8.208;2023-12-28T07:46:02;4.07;;;3.10;;
18455;SDS011;9357;49.900;8.208;2023-12-28T07:47:34;4.50;;;3.33;;
18455;SDS011;9357;49.900;8.208;2023-12-28T07:49:06;3.70;;;3.27;;
18455;SDS011;9357;49.900;8.208;2023-12-28T07:50:40;3.73;;;3.30;;
18455;SDS011;9357;49.900;8.208;2023-12-28T07:52:13;3.78;;;3.28;;
18455;SDS011;9357;49.900;8.208;2023-12-28T07:53:45;4.30;;;3.30;;
18455;SDS011;9357;49.900;8.208;2023-12-28T07:55:17;4.07;;;3.40;;
18455;SDS011;9357;49.900;8.208;2023-12-28T07:56:49;4.40;;;3.25;;
18455;SDS011;9357;49.900;8.208;2023-12-28T07:58:22;4.78;;;3.20;;
18455;SDS011;9357;49.900;8.208;2023-12-28T07:59:54;4.70;;;3.10;;
18455;SDS011;9357;49.900;8.208;2023-12-28T08:01:26;5.50;;;3.22;;
18455;SDS011;9357;49.900;8.208;2023-12-28T08:02:58;5.20;;;3.40;;
18455;SDS011;9357;49.900;8.208;2023-12-28T08:04:31;4.07;;;3.47;;
18455;SDS011;9357;49.900;8.208;2023-12-28T08:06:04;4.85;;;3.35;;
18455;SDS011;9357;49.900;8.208;2023-12-28T08:07:38;3.80;;;3.33;;
18455;SDS011;9357;49.900;8.208;2023-12-28T08:09:10;4.50;;;3.45;;
18455;SDS011;9357;49.900;8.208;2023-12-28T08:10:42;3.88;;;3.33;;
18455;SDS011;9357;49.900;8.208;2023-12-28T08:12:15;6.10;;;4.00;;
18455;SDS011;9357;49.900;8.208;2023-12-28T08:13:48;4.37;;;3.60;;
18455;SDS011;9357;49.900;8.208;2023-12-28T08:15:20;4.97;;;3.70;;
18455;SDS011;9357;49.900;8.208;2023-12-28T08:16:52;4.60;;;3.60;;
18455;SDS011;9357;49.900;8.208;2023-12-28T08:18:25;6.07;;;3.90;;
18455;SDS011;9357;49.900;8.208;2023-12-28T08:19:57;5.95;;;3.83;;
18455;SDS011;9357;49.900;8.208;2023-12-28T08:21:31;6.97;;;3.85;;
18455;SDS011;9357;49.900;8.208;2023-12-28T08:23:03;5.50;;;3.72;;
18455;SDS011;9357;49.900;8.208;2023-12-28T08:24:48;6.72;;;4.10;;
18455;SDS011;9357;49.900;8.208;2023-12-28T08:26:20;5.68;;;3.60;;
18455;SDS011;9357;49.900;8.208;2023-12-28T08:27:52;5.55;;;3.97;;
18455;SDS011;9357;49.900;8.208;2023-12-28T08:29:24;5.82;;;3.80;;
18455;SDS011;9357;49.900;8.208;2023-12-28T08:30:57;5.35;;;3.80;;
18455;SDS011;9357;49.900;8.208;2023-12-28T08:32:30;7.45;;;4.00;;
18455;SDS011;9357;49.900;8.208;2023-12-28T08:34:02;6.28;;;3.90;;
18455;SDS011;9357;49.900;8.208;2023-12-28T08:35:35;4.47;;;3.63;;
18455;SDS011;9357;49.900;8.208;2023-12-28T08:37:08;4.63;;;3.72;;
18455;SDS011;9357;49.900;8.208;2023-12-28T08:38:41;6.13;;;3.80;;
18455;SDS011;9357;49.900;8.208;2023-12-28T08:40:13;7.30;;;3.50;;
18455;SDS011;9357;49.900;8.208;2023-12-28T08:41:46;4.25;;;3.47;;
18455;SDS011;9357;49.900;8.208;2023-12-28T08:43:18;6.13;;;3.80;;
18455;SDS011;9357;49.900;8.208;2023-12-28T08:44:51;4.10;;;3.58;;
18455;SDS011;9357;49.900;8.208;2023-12-28T08:46:24;5.68;;;3.63;;
18455;SDS011;9357;49.900;8.208;2023-12-28T08:47:56;6.80;;;3.50;;
18455;SDS011;9357;49.900;8.208;2023-12-28T08:49:29;4.20;;;3.60;;
18455;SDS011;9357;49.900;8.208;2023-12-28T08:51:02;5.33;;;3.60;;
18455;SDS011;9357;49.900;8.208;2023-12-28T08:52:35;4.80;;;3.53;;
18455;SDS011;9357;49.900;8.208;2023-12-28T08:54:08;4.22;;;3.60;;
18455;SDS011;9357;49.900;8.208;2023-12-28T08:55:40;6.27;;;3.63;;
18455;SDS011;9357;49.900;8.208;2023-12-28T08:57:13;6.05;;;3.47;;
18455;SDS011;9357;49.900;8.208;2023-12-28T08:58:46;5.10;;;3.33;;
18455;SDS011;9357;49.900;8.208;2023-12-28T09:00:19;4.57;;;3.30;;
18455;SDS011;9357;49.900;8.208;2023-12-28T09:01:53;4.25;;;3.13;;
18455;SDS011;9357;49.900;8.208;2023-12-28T09:03:25;5.13;;;3.50;;
18455;SDS011;9357;49.900;8.208;2023-12-28T09:04:57;3.60;;;3.30;;
18455;SDS011;9357;49.900;8.208;2023-12-28T09:06:32;4.15;;;3.13;;
18455;SDS011;9357;49.900;8.208;2023-12-28T09:08:06;3.30;;;2.95;;
18455;SDS011;9357;49.900;8.208;2023-12-28T09:09:39;4.47;;;3.13;;
18455;SDS011;9357;49.900;8.208;2023-12-28T09:11:12;5.30;;;3.53;;
18455;SDS011;9357;49.900;8.208;2023-12-28T09:12:44;5.30;;;3.28;;
18455;SDS011;9357;49.900;8.208;2023-12-28T09:14:17;3.95;;;3.55;;
18455;SDS011;9357;49.900;8.208;2023-12-28T09:15:49;4.60;;;3.33;;
18455;SDS011;9357;49.900;8.208;2023-12-28T09:17:22;6.35;;;3.30;;
18455;SDS011;9357;49.900;8.208;2023-12-28T09:18:54;6.43;;;3.50;;
18455;SDS011;9357;49.900;8.208;2023-12-28T09:20:28;3.92;;;3.13;;
18455;SDS011;9357;49.900;8.208;2023-12-28T09:22:00;4.45;;;3.53;;
18455;SDS011;9357;49.900;8.208;2023-12-28T09:23:34;4.70;;;3.42;;
18455;SDS011;9357;49.900;8.208;2023-12-28T09:25:06;5.78;;;3.30;;
18455;SDS011;9357;49.900;8.208;2023-12-28T09:26:40;4.22;;;3.42;;
18455;SDS011;9357;49.900;8.208;2023-12-28T09:28:12;4.78;;;3.30;;
18455;SDS011;9357;49.900;8.208;2023-12-28T09:29:45;6.23;;;3.70;;